Time;durP1;ratioP1;P1;durP2;ratioP2;P2;SDS_P1;SDS_P2;PMS_P1;PMS_P2;Temp;Humidity;BMP_temperature;BMP_pressure;BME280_temperature;BME280_humidity;BME280_pressure;Samples;Min_cycle;Max_cycle;Signal;HPM_P1;HPM_P2
2021/01/17 00:02:23;;;;;;;;;;;-2.00;99.90;;;-4.48;80.00;95804.41;10355668;28;2257;-86
2021/01/17 00:07:25;;;;;;;;;;;-3.40;99.90;;;-4.50;80.33;95803.78;10351097;28;2168;-87
2021/01/17 00:12:27;;;;;;;;;;;-3.40;99.90;;;-4.48;80.23;95799.19;10339619;28;2294;-86
2021/01/17 00:17:29;;;;;;;;;;;-1.50;99.90;;;-4.48;80.57;95783.44;10360656;28;1940;-84
2021/01/17 00:22:31;;;;;;;;;;;-1.80;99.90;;;-4.47;79.89;95777.19;10326421;28;2351;-87
2021/01/17 00:27:34;;;;;;;;;;;-0.90;99.90;;;-4.44;79.62;95768.16;10330905;28;1977;-84
2021/01/17 00:32:36;;;;;;;;;;;-2.10;99.90;;;-4.42;79.92;95750.41;10328096;28;2128;-86
2021/01/17 00:37:38;;;;;;;;;;;-1.50;99.90;;;-4.43;79.58;95754.84;10356330;28;1985;-87
2021/01/17 00:42:40;;;;;;;;;;;-3.30;99.90;;;-4.41;79.69;95752.84;10326248;28;1949;-84
2021/01/17 00:47:44;;;;;;;;;;;-3.30;99.90;;;-4.40;79.74;95753.66;10338001;28;2355;-90
2021/01/17 00:52:46;;;;;;;;;;;-3.30;99.90;;;-4.38;79.72;95742.00;10353244;28;2346;-85
2021/01/17 00:57:48;;;;;;;;;;;-3.30;99.90;;;-4.37;79.75;95741.00;10326315;28;2036;-86
2021/01/17 01:02:50;;;;;;;;;;;-3.30;99.90;;;-4.35;79.79;95731.13;10365905;28;1552;-88
2021/01/17 01:07:53;;;;;;;;;;;-3.20;99.90;;;-4.31;79.10;95725.53;10370497;28;2316;-87
2021/01/17 01:12:55;;;;;;;;;;;-2.30;99.90;;;-4.30;79.21;95719.28;10367346;28;2211;-88
2021/01/17 01:17:57;;;;;;;;;;;-2.90;99.90;;;-4.29;78.85;95711.22;10355698;28;2445;-86
2021/01/17 01:23:00;;;;;;;;;;;-3.20;99.90;;;-4.29;79.46;95697.28;10354423;28;1640;-86
2021/01/17 01:33:26;;;;;;;;;;;-3.10;99.90;;;-4.21;78.35;95686.69;10334625;28;1201;-85
2021/01/17 01:38:29;;;;;;;;;;;-1.40;99.90;;;-4.19;78.39;95680.28;10343948;28;1946;-88
2021/01/17 01:43:32;;;;;;;;;;;-2.90;99.90;;;-4.19;77.69;95671.59;10348889;28;2376;-86
2021/01/17 01:48:34;;;;;;;;;;;-3.00;99.90;;;-4.20;78.12;95669.94;10352735;28;1437;-87
2021/01/17 01:53:38;;;;;;;;;;;-1.70;99.90;;;-4.23;77.77;95665.06;10346592;28;1580;-88
2021/01/17 01:58:41;;;;;;;;;;;-2.40;99.90;;;-4.24;78.14;95652.94;10352837;28;1963;-87
2021/01/17 02:03:43;;;;;;;;;;;-3.10;99.90;;;-4.32;78.38;95650.44;10371954;28;1647;-87
2021/01/17 02:08:45;;;;;;;;;;;-3.00;99.90;;;-4.38;79.49;95642.28;10354291;28;2133;-86
2021/01/17 02:13:47;;;;;;;;;;;-0.90;99.90;;;-4.38;79.49;95631.78;10346419;28;2373;-85
2021/01/17 02:18:51;;;;;;;;;;;-3.20;99.90;;;-4.28;78.82;95623.63;10328061;28;2101;-86
2021/01/17 02:23:53;;;;;;;;;;;-1.50;99.90;;;-4.09;78.73;95617.75;10356656;28;2057;-85
2021/01/17 02:28:55;;;;;;;;;;;-1.80;99.90;;;-3.89;77.92;95609.28;10330078;28;1686;-86
2021/01/17 02:33:57;;;;;;;;;;;-0.60;99.90;;;-3.77;76.97;95604.34;10363964;28;1847;-86
2021/01/17 02:38:59;;;;;;;;;;;-0.20;99.90;;;-3.62;76.45;95584.06;10353368;28;2146;-85
2021/01/17 02:44:03;;;;;;;;;;;-1.20;99.90;;;-3.58;76.24;95580.03;10357890;28;2113;-85
2021/01/17 02:49:06;;;;;;;;;;;-2.50;99.90;;;-3.51;76.37;95570.38;10318325;28;2501;-84
2021/01/17 02:54:07;;;;;;;;;;;-1.00;99.90;;;-3.49;76.83;95573.66;10332311;28;2720;-86
2021/01/17 02:59:09;;;;;;;;;;;-2.40;99.90;;;-3.50;77.63;95561.50;10321123;28;2506;-86
2021/01/17 03:04:11;;;;;;;;;;;-0.50;99.90;;;-3.40;77.00;95564.63;10316543;28;1718;-86
2021/01/17 03:09:13;;;;;;;;;;;-2.30;99.90;;;-3.36;77.99;95555.34;10319702;28;2125;-85
2021/01/17 03:14:15;;;;;;;;;;;-2.30;99.90;;;-3.39;77.27;95554.91;10303400;28;2143;-85
2021/01/17 03:19:17;;;;;;;;;;;-1.30;99.90;;;-3.40;77.17;95554.09;10328698;28;1977;-85
2021/01/17 03:24:19;;;;;;;;;;;-2.30;99.90;;;-3.48;78.73;95546.38;10352787;28;2139;-86
2021/01/17 03:29:20;;;;;;;;;;;-2.30;99.90;;;-3.46;79.33;95539.09;10339536;28;2008;-86
2021/01/17 03:34:22;;;;;;;;;;;-2.30;99.90;;;-3.49;80.89;95531.63;10347642;28;2477;-86
2021/01/17 03:39:25;;;;;;;;;;;-2.40;99.90;;;-3.45;81.70;95532.84;10313559;28;2474;-85
2021/01/17 03:44:27;;;;;;;;;;;-2.40;99.90;;;-3.55;81.67;95548.16;10307717;28;2482;-84
2021/01/17 03:49:29;;;;;;;;;;;-1.80;99.90;;;-3.61;82.06;95543.66;10320516;28;1815;-86
2021/01/17 03:54:31;;;;;;;;;;;-0.70;99.90;;;-3.58;82.63;95538.81;10302128;28;2034;-85
2021/01/17 03:59:33;;;;;;;;;;;-2.50;99.90;;;-3.48;83.85;95527.97;10325362;28;2529;-84
2021/01/17 04:04:35;;;;;;;;;;;-1.30;99.90;;;-3.51;84.01;95544.13;10317461;28;1855;-84
2021/01/17 04:09:36;;;;;;;;;;;-2.40;99.90;;;-3.54;83.72;95547.13;10338712;28;2726;-86
2021/01/17 04:14:38;;;;;;;;;;;-1.30;99.90;;;-3.42;84.92;95535.09;10328934;28;1888;-85
2021/01/17 04:19:40;;;;;;;;;;;-2.40;99.90;;;-3.51;84.21;95543.31;10342406;28;2683;-84
2021/01/17 04:24:42;;;;;;;;;;;-0.60;99.90;;;-3.49;84.61;95534.25;10355172;28;1614;-84
2021/01/17 04:29:45;;;;;;;;;;;-2.40;99.90;;;-3.47;84.41;95529.59;10356117;28;2498;-85
2021/01/17 04:34:47;;;;;;;;;;;-2.40;99.90;;;-3.51;84.95;95523.09;10330932;28;2569;-85
2021/01/17 04:39:49;;;;;;;;;;;-1.10;99.90;;;-3.49;84.56;95526.34;10337411;28;1891;-83
2021/01/17 04:44:53;;;;;;;;;;;-2.40;99.90;;;-3.49;85.85;95536.06;10357781;28;2044;-87
2021/01/17 04:49:55;;;;;;;;;;;-2.40;99.90;;;-3.43;84.96;95537.91;10355542;28;2504;-86
2021/01/17 04:54:57;;;;;;;;;;;-2.30;99.90;;;-3.44;85.33;95533.66;10317802;28;2162;-85
2021/01/17 04:59:59;;;;;;;;;;;-2.30;99.90;;;-3.44;85.39;95523.94;10316010;28;1914;-84
2021/01/17 05:05:03;;;;;;;;;;;-2.30;99.90;;;-3.53;85.23;95519.84;10299801;28;1510;-85
2021/01/17 05:10:05;;;;;;;;;;;-2.30;99.90;;;-3.52;85.80;95521.47;10339713;28;2061;-85
2021/01/17 05:15:07;;;;;;;;;;;-2.40;99.90;;;-3.46;85.31;95519.91;10317269;28;2645;-83
2021/01/17 05:20:09;;;;;;;;;;;-2.40;99.90;;;-3.47;86.25;95519.09;10336989;28;1972;-86
2021/01/17 05:25:11;;;;;;;;;;;-2.40;99.90;;;-3.44;86.09;95526.56;10334308;28;2101;-84
2021/01/17 05:30:13;;;;;;;;;;;-2.30;99.90;;;-3.36;85.92;95525.63;10320763;28;2015;-84
2021/01/17 05:35:15;;;;;;;;;;;-2.30;99.90;;;-3.34;86.19;95529.69;10326805;28;2164;-85
2021/01/17 05:40:17;;;;;;;;;;;-2.30;99.90;;;-3.42;86.57;95527.22;10327065;28;2537;-85
2021/01/17 05:45:19;;;;;;;;;;;-2.30;99.90;;;-3.29;86.88;95529.09;10352838;28;2254;-83
2021/01/17 05:50:21;;;;;;;;;;;-0.90;99.90;;;-3.37;86.28;95530.09;10342829;28;2002;-83
2021/01/17 05:55:23;;;;;;;;;;;-2.30;99.90;;;-3.33;87.07;95533.94;10328017;28;2048;-85
2021/01/17 06:00:25;;;;;;;;;;;-2.20;99.90;;;-3.27;86.28;95541.03;10314712;28;1989;-84
2021/01/17 06:05:27;;;;;;;;;;;-2.20;99.90;;;-3.38;86.99;95538.94;10330379;28;1301;-85
2021/01/17 06:10:29;;;;;;;;;;;-2.30;99.90;;;-3.37;87.58;95540.59;10365215;28;2537;-84
2021/01/17 06:15:31;;;;;;;;;;;-2.30;99.90;;;-3.32;86.94;95545.25;10325481;28;2002;-84
2021/01/17 06:20:33;;;;;;;;;;;-2.20;99.90;;;-3.38;87.61;95543.38;10352220;28;2250;-83
2021/01/17 06:25:35;;;;;;;;;;;-2.30;99.90;;;-3.42;87.46;95542.16;10343878;28;1572;-84
2021/01/17 06:30:37;;;;;;;;;;;-2.30;99.90;;;-3.32;87.67;95543.44;10329792;28;2656;-83
2021/01/17 06:35:43;;;;;;;;;;;-2.30;99.90;;;-3.26;88.44;95545.28;10317334;28;2199;-84
2021/01/17 06:40:45;;;;;;;;;;;-0.50;99.90;;;-3.19;87.82;95549.78;10356196;28;2474;-84
2021/01/17 06:45:47;;;;;;;;;;;-0.70;99.90;;;-3.18;87.94;95554.03;10338808;28;2221;-86
2021/01/17 06:50:49;;;;;;;;;;;-2.10;99.90;;;-3.10;87.61;95546.00;10331945;28;2567;-85
2021/01/17 06:55:51;;;;;;;;;;;-0.70;99.90;;;-3.07;88.70;95545.59;10340868;28;2469;-86
2021/01/17 07:00:52;;;;;;;;;;;-2.00;99.90;;;-2.99;87.92;95553.31;10342536;28;2164;-84
2021/01/17 07:05:54;;;;;;;;;;;-0.70;99.90;;;-2.94;88.21;95555.38;10347473;28;2449;-82
2021/01/17 07:10:56;;;;;;;;;;;-1.90;99.90;;;-2.90;87.92;95556.63;10326139;28;2286;-83
2021/01/17 07:15:58;;;;;;;;;;;-1.80;99.90;;;-2.82;87.59;95554.63;10376451;28;2444;-85
2021/01/17 07:21:00;;;;;;;;;;;-1.80;99.90;;;-2.76;87.96;95567.00;10327240;28;2395;-84
2021/01/17 07:26:04;;;;;;;;;;;-1.70;99.90;;;-2.65;87.25;95559.56;10325318;28;2554;-85
2021/01/17 07:31:06;;;;;;;;;;;-1.60;99.90;;;-2.53;87.49;95560.63;10353659;28;2755;-83
2021/01/17 07:36:09;;;;;;;;;;;-0.80;99.90;;;-2.36;88.15;95564.50;10350277;28;2472;-85
2021/01/17 07:41:11;;;;;;;;;;;-1.40;99.90;;;-2.38;86.98;95569.16;10344821;28;2795;-83
2021/01/17 07:46:12;;;;;;;;;;;-1.30;99.90;;;-2.21;86.87;95575.72;10343072;28;2440;-82
2021/01/17 07:51:15;;;;;;;;;;;-0.90;99.90;;;-1.92;86.53;95581.63;10360885;28;2149;-81
2021/01/17 07:56:16;;;;;;;;;;;-1.10;99.90;;;-1.84;86.20;95567.47;10348570;28;2381;-84
2021/01/17 08:01:18;;;;;;;;;;;-0.50;99.90;;;-1.70;85.01;95569.91;10325044;28;2963;-84
2021/01/17 08:06:20;;;;;;;;;;;-0.80;99.90;;;-1.49;84.22;95576.00;10321239;28;3069;-80
2021/01/17 08:11:22;;;;;;;;;;;-0.60;99.90;;;-1.57;84.09;95578.84;10352983;28;2834;-84
2021/01/17 08:16:24;;;;;;;;;;;-0.60;99.90;;;-1.28;84.10;95578.41;10346658;28;2473;-84
2021/01/17 08:21:26;;;;;;;;;;;-0.20;99.90;;;-1.05;83.04;95577.97;10341171;28;2523;-83
2021/01/17 08:26:28;;;;;;;;;;;-0.20;99.90;;;-0.89;81.70;95577.56;10335406;28;2505;-83
2021/01/17 08:31:30;;;;;;;;;;;0.00;99.90;;;-0.99;81.14;95576.34;10319034;28;1288;-81
2021/01/17 08:36:32;;;;;;;;;;;0.40;99.90;;;-0.85;80.14;95581.38;10359532;28;2401;-83
2021/01/17 08:41:33;;;;;;;;;;;0.40;99.90;;;-0.78;81.36;95578.72;10351826;28;2197;-81
2021/01/17 08:46:35;;;;;;;;;;;1.70;99.90;;;-0.83;80.63;95591.72;10339559;28;2428;-80
2021/01/17 08:51:37;;;;;;;;;;;0.70;99.90;;;-0.92;80.57;95598.25;10332564;28;2552;-83
2021/01/17 08:56:39;;;;;;;;;;;0.90;99.90;;;-0.85;80.39;95609.59;10340940;28;2061;-83
2021/01/17 09:01:45;;;;;;;;;;;0.70;99.90;;;-0.73;80.07;95615.88;10350844;28;2101;-82
2021/01/17 09:06:47;;;;;;;;;;;0.00;99.90;;;-0.72;79.51;95617.50;10323331;28;2500;-82
2021/01/17 09:11:49;;;;;;;;;;;0.80;99.90;;;-0.99;79.74;95623.84;10332545;28;2461;-82
2021/01/17 09:16:51;;;;;;;;;;;0.10;99.90;;;-0.82;79.68;95620.56;10329812;28;2500;-85
2021/01/17 09:21:53;;;;;;;;;;;0.10;99.90;;;-0.87;79.13;95628.28;10329758;28;2524;-83
2021/01/17 09:26:55;;;;;;;;;;;0.10;99.90;;;-0.97;78.85;95640.25;10336162;28;2042;-82
2021/01/17 09:31:57;;;;;;;;;;;1.10;99.90;;;-1.17;79.30;95638.47;10325263;28;2426;-85
2021/01/17 09:36:59;;;;;;;;;;;0.00;99.90;;;-0.75;79.36;95646.94;10352917;28;2052;-81
2021/01/17 09:42:03;;;;;;;;;;;0.00;99.90;;;-0.80;77.49;95652.03;10351876;28;2058;-82
2021/01/17 09:47:05;;;;;;;;;;;0.20;99.90;;;-0.45;77.28;95662.31;10343817;28;1854;-83
2021/01/17 09:52:07;;;;;;;;;;;2.20;99.90;;;-0.14;75.13;95659.75;10334782;28;1467;-83
2021/01/17 09:57:09;;;;;;;;;;;0.60;99.90;;;0.01;75.32;95664.00;10356787;28;2422;-84
2021/01/17 10:02:12;;;;;;;;;;;2.00;99.90;;;-0.40;75.92;95676.50;10366407;28;2842;-80
2021/01/17 10:07:14;;;;;;;;;;;0.70;99.90;;;-0.77;76.62;95675.34;10320477;28;2418;-83
2021/01/17 10:12:16;;;;;;;;;;;0.70;99.90;;;-0.99;77.33;95682.69;10347409;28;2061;-83
2021/01/17 10:17:18;;;;;;;;;;;1.20;99.90;;;-1.01;77.40;95684.75;10316429;28;2366;-82
2021/01/17 10:22:20;;;;;;;;;;;0.10;99.90;;;-0.70;76.94;95689.38;10341262;28;2488;-82
2021/01/17 10:27:22;;;;;;;;;;;0.20;99.90;;;-0.80;77.35;95696.09;10330794;28;2441;-84
2021/01/17 10:32:24;;;;;;;;;;;0.50;99.90;;;-0.85;77.56;95694.06;10365262;28;2157;-86
2021/01/17 10:37:26;;;;;;;;;;;0.10;99.90;;;-0.81;77.38;95690.00;10343851;28;2355;-80
2021/01/17 10:42:31;;;;;;;;;;;0.10;99.90;;;-0.51;77.03;95686.88;10342519;28;2267;-82
2021/01/17 10:47:33;;;;;;;;;;;1.80;99.90;;;-0.83;77.68;95687.56;10343590;28;2449;-82
2021/01/17 10:52:35;;;;;;;;;;;0.70;99.90;;;-1.23;78.34;95686.75;10338086;28;2377;-83
2021/01/17 10:57:37;;;;;;;;;;;2.10;99.90;;;-1.11;79.49;95693.03;10341975;28;2071;-84
2021/01/17 11:02:39;;;;;;;;;;;-0.20;99.90;;;-0.73;78.70;95679.22;10363686;28;2371;-84
2021/01/17 11:07:42;;;;;;;;;;;0.00;99.90;;;-0.79;77.00;95672.13;10347461;28;2918;-83
2021/01/17 11:13:01;;;;;;;;;;;1.70;99.90;;;-0.37;78.33;95675.31;10345843;28;2419;-82
2021/01/17 11:18:07;;;;;;;;;;;0.30;99.90;;;-0.47;76.81;95670.44;10367586;28;1971;-79
2021/01/17 11:23:11;;;;;;;;;;;0.50;99.90;;;-0.07;76.33;95671.09;10354790;28;2382;-80
2021/01/17 11:28:28;;;;;;;;;;;0.80;99.90;;;-0.05;75.77;95673.56;10351439;28;1888;-81
2021/01/17 11:33:31;;;;;;;;;;;0.80;99.90;;;-0.25;74.76;95678.94;10369365;28;2390;-83
2021/01/17 11:38:33;;;;;;;;;;;0.70;99.90;;;-0.59;76.80;95675.53;10350469;28;2619;-82
2021/01/17 11:43:34;;;;;;;;;;;0.50;99.90;;;-0.40;76.99;95680.97;10350833;28;2576;-82
2021/01/17 11:48:36;;;;;;;;;;;2.10;99.90;;;-0.04;76.28;95686.56;10368772;28;2639;-80
2021/01/17 11:53:38;;;;;;;;;;;1.00;99.90;;;0.08;75.13;95680.63;10340714;28;2441;-81
2021/01/17 11:58:41;;;;;;;;;;;1.00;99.90;;;0.26;75.45;95680.75;10342634;28;2425;-83
2021/01/17 12:03:48;;;;;;;;;;;1.10;99.90;;;0.06;75.43;95680.81;10352008;28;2359;-83
2021/01/17 12:08:50;;;;;;;;;;;2.80;99.90;;;-0.06;76.42;95685.16;10361218;28;2497;-81
2021/01/17 12:13:51;;;;;;;;;;;1.10;99.90;;;-0.11;76.86;95685.78;10351049;28;1991;-82
2021/01/17 12:18:53;;;;;;;;;;;2.50;99.90;;;-0.27;76.73;95686.22;10349013;28;2524;-83
2021/01/17 12:23:55;;;;;;;;;;;2.30;99.90;;;-0.29;76.48;95683.00;10359220;28;2315;-81
2021/01/17 12:28:57;;;;;;;;;;;0.60;99.90;;;-0.15;77.64;95687.19;10367465;28;2660;-82
2021/01/17 12:33:59;;;;;;;;;;;0.60;99.90;;;-0.38;76.83;95678.94;10368548;28;2496;-83
2021/01/17 12:39:04;;;;;;;;;;;2.00;99.90;;;-0.08;76.03;95687.19;10360180;28;2378;-81
2021/01/17 12:44:06;;;;;;;;;;;1.50;99.90;;;0.09;77.09;95684.88;10362546;28;2498;-83
2021/01/17 12:49:08;;;;;;;;;;;2.50;99.90;;;-0.19;76.19;95688.66;10360620;28;2453;-81
2021/01/17 12:54:10;;;;;;;;;;;1.20;99.90;;;-0.31;77.06;95685.03;10361745;28;2420;-83
2021/01/17 12:59:12;;;;;;;;;;;1.90;99.90;;;-0.25;78.47;95689.50;10341909;28;2365;-82
2021/01/17 13:04:14;;;;;;;;;;;1.70;99.90;;;-0.44;78.69;95700.91;10358340;28;2541;-83
2021/01/17 13:09:16;;;;;;;;;;;0.50;99.90;;;-0.58;78.74;95706.19;10369064;28;2323;-82
2021/01/17 13:14:18;;;;;;;;;;;0.50;99.90;;;-0.76;81.81;95705.19;10362363;28;2417;-83
2021/01/17 13:19:19;;;;;;;;;;;0.30;99.90;;;-0.73;81.82;95710.91;10365383;28;2393;-82
2021/01/17 13:24:21;;;;;;;;;;;0.40;99.90;;;-0.72;82.61;95727.53;10363430;28;2343;-84
2021/01/17 13:29:23;;;;;;;;;;;0.20;99.90;;;-0.71;82.59;95723.88;10356446;28;2402;-81
2021/01/17 13:34:25;;;;;;;;;;;0.20;99.90;;;-0.47;82.37;95733.81;10352877;28;2379;-84
2021/01/17 13:39:27;;;;;;;;;;;0.40;99.90;;;-0.48;81.55;95734.03;10357402;28;1909;-82
2021/01/17 13:44:28;;;;;;;;;;;1.20;99.90;;;-0.54;82.43;95733.00;10356618;28;2055;-84
2021/01/17 13:49:30;;;;;;;;;;;1.80;99.90;;;-0.60;82.23;95732.00;10353623;28;1749;-83
2021/01/17 13:54:32;;;;;;;;;;;0.40;99.90;;;-0.49;82.71;95741.13;10362529;28;1703;-83
2021/01/17 13:59:34;;;;;;;;;;;1.40;99.90;;;-0.62;83.12;95747.25;10344844;28;1957;-82
2021/01/17 14:04:36;;;;;;;;;;;0.40;99.90;;;-0.78;83.70;95757.38;10358493;28;1521;-83
2021/01/17 14:09:38;;;;;;;;;;;0.20;99.90;;;-0.77;83.43;95773.00;10340666;28;1854;-82
2021/01/17 14:14:40;;;;;;;;;;;0.20;99.90;;;-0.72;84.40;95783.78;10340613;28;1578;-83
2021/01/17 14:19:42;;;;;;;;;;;0.20;99.90;;;-0.67;84.00;95772.63;10365346;28;1895;-82
2021/01/17 14:24:45;;;;;;;;;;;0.30;99.90;;;-0.70;83.67;95786.22;10373589;28;1605;-84
2021/01/17 14:29:47;;;;;;;;;;;0.20;99.90;;;-0.76;84.31;95784.38;10353012;28;1425;-84
2021/01/17 14:34:49;;;;;;;;;;;1.80;99.90;;;-0.91;83.63;95793.31;10362922;28;1668;-84
2021/01/17 14:39:51;;;;;;;;;;;0.10;99.90;;;-0.93;84.38;95792.72;10359323;28;1966;-84
2021/01/17 14:44:53;;;;;;;;;;;0.80;99.90;;;-0.91;84.70;95800.41;10357549;28;1830;-83
2021/01/17 14:49:55;;;;;;;;;;;1.30;99.90;;;-0.88;85.18;95794.75;10334143;28;1707;-85
2021/01/17 14:54:57;;;;;;;;;;;1.80;99.90;;;-0.92;85.55;95809.34;10358371;28;1264;-83
2021/01/17 14:59:59;;;;;;;;;;;0.80;99.90;;;-0.90;84.85;95813.41;10339465;28;1995;-83
2021/01/17 15:05:03;;;;;;;;;;;1.70;99.90;;;-0.83;84.99;95818.69;10371049;28;1189;-83
2021/01/17 15:10:06;;;;;;;;;;;0.10;99.90;;;-0.98;85.30;95828.63;10374373;28;1453;-84
2021/01/17 15:15:08;;;;;;;;;;;1.40;99.90;;;-1.12;86.17;95833.06;10364970;28;1528;-81
2021/01/17 15:20:10;;;;;;;;;;;1.30;99.90;;;-1.20;86.29;95844.59;10362022;28;1891;-84
2021/01/17 15:25:12;;;;;;;;;;;0.50;99.90;;;-1.29;86.19;95845.78;10359934;28;1697;-83
2021/01/17 15:30:27;;;;;;;;;;;-0.30;99.90;;;-1.32;87.58;95848.81;10356887;28;1735;-84
2021/01/17 15:35:29;;;;;;;;;;;1.00;99.90;;;-1.37;86.93;95854.69;10368575;28;1278;-83
2021/01/17 15:40:32;;;;;;;;;;;-0.30;99.90;;;-1.42;87.55;95848.38;10364945;28;1918;-84
2021/01/17 15:45:34;;;;;;;;;;;-0.10;99.90;;;-1.52;88.33;95861.13;10348489;28;1231;-83
2021/01/17 15:50:36;;;;;;;;;;;0.80;99.90;;;-1.56;88.84;95862.50;10364384;28;1736;-82
2021/01/17 15:55:38;;;;;;;;;;;1.80;99.90;;;-1.56;88.68;95873.88;10370545;28;1289;-84
2021/01/17 16:00:43;;;;;;;;;;;0.40;99.90;;;-1.68;88.36;95878.88;10365511;28;1954;-81
2021/01/17 16:05:47;;;;;;;;;;;0.90;99.90;;;-1.79;89.14;95889.94;10369980;28;1588;-83
2021/01/17 16:10:49;;;;;;;;;;;0.60;99.90;;;-1.83;88.60;95899.25;10368716;28;1544;-83
2021/01/17 16:15:51;;;;;;;;;;;-0.70;99.90;;;-1.78;89.20;95901.31;10364505;28;1288;-82
2021/01/17 16:20:53;;;;;;;;;;;-0.30;99.90;;;-1.69;89.39;95902.78;10352355;28;1895;-81
2021/01/17 16:25:55;;;;;;;;;;;-0.60;99.90;;;-1.77;89.70;95910.88;10364317;28;1148;-81
2021/01/17 16:36:28;;;;;;;;;;;-0.70;99.90;;;-1.78;89.66;95933.75;10367218;28;1214;-84
2021/01/17 16:41:33;;;;;;;;;;;0.90;99.90;;;-1.86;89.63;95925.97;10346917;28;1958;-82
2021/01/17 16:46:35;;;;;;;;;;;1.40;99.90;;;-1.86;89.86;95939.16;10345071;28;1681;-82
2021/01/17 16:51:37;;;;;;;;;;;0.10;99.90;;;-1.86;90.11;95939.16;10374955;28;1346;-84
2021/01/17 16:56:39;;;;;;;;;;;1.20;99.90;;;-1.86;90.08;95951.53;10339638;28;2484;-84
2021/01/17 17:01:41;;;;;;;;;;;-0.80;99.90;;;-1.87;90.04;95971.78;10359856;28;1964;-84
2021/01/17 17:06:43;;;;;;;;;;;0.70;99.90;;;-1.86;90.40;95965.50;10346109;28;1942;-82
2021/01/17 17:11:45;;;;;;;;;;;-0.50;99.90;;;-1.87;89.70;95963.88;10364115;28;1547;-83
2021/01/17 17:16:47;;;;;;;;;;;1.10;99.90;;;-1.84;90.04;95966.16;10373783;28;1238;-85
2021/01/17 17:21:49;;;;;;;;;;;0.60;99.90;;;-1.86;90.31;95980.50;10348888;28;1887;-84
2021/01/17 17:26:51;;;;;;;;;;;-0.80;99.90;;;-1.81;90.12;95984.19;10380549;28;1148;-84
2021/01/17 17:31:54;;;;;;;;;;;-0.10;99.90;;;-1.73;89.96;95985.88;10358097;28;1609;-85
2021/01/17 17:36:56;;;;;;;;;;;-0.20;99.90;;;-1.74;90.21;95985.06;10373066;28;1223;-82
2021/01/17 17:41:58;;;;;;;;;;;-0.70;99.90;;;-1.70;90.23;95988.97;10361941;28;1968;-83
2021/01/17 17:47:00;;;;;;;;;;;-0.30;99.90;;;-1.70;90.28;95996.88;10356754;28;1646;-84
2021/01/17 17:52:05;;;;;;;;;;;-0.60;99.90;;;-1.72;89.75;96009.44;10364889;28;1380;-84
2021/01/17 17:57:09;;;;;;;;;;;1.10;99.90;;;-1.70;90.54;96023.22;10362811;28;1648;-84
2021/01/17 18:02:14;;;;;;;;;;;0.20;99.90;;;-1.67;91.36;96016.75;10369666;28;1915;-85
2021/01/17 18:07:17;;;;;;;;;;;0.30;99.90;;;-1.61;90.52;96015.97;10354576;28;1508;-83
2021/01/17 18:12:18;;;;;;;;;;;-0.50;99.90;;;-1.60;90.89;96027.34;10366667;28;1288;-83
2021/01/17 18:17:20;;;;;;;;;;;0.80;99.90;;;-1.52;91.77;96025.38;10386314;28;1552;-84
2021/01/17 18:22:22;;;;;;;;;;;1.30;99.90;;;-1.48;91.60;96031.06;10373129;28;1914;-83
2021/01/17 18:27:24;;;;;;;;;;;1.00;99.90;;;-1.39;91.62;96029.94;10361931;28;1525;-84
2021/01/17 18:32:26;;;;;;;;;;;-0.40;99.90;;;-1.38;91.52;96044.75;10369393;28;1624;-85
2021/01/17 18:37:28;;;;;;;;;;;0.40;99.90;;;-1.42;91.51;96046.13;10360109;28;1351;-84
2021/01/17 18:42:30;;;;;;;;;;;-0.40;99.90;;;-1.35;92.13;96052.25;10386817;28;1887;-83
2021/01/17 18:47:32;;;;;;;;;;;0.30;99.90;;;-1.35;91.11;96054.91;10374394;28;1273;-83
2021/01/17 18:52:36;;;;;;;;;;;1.40;99.90;;;-1.35;91.36;96052.25;10344322;28;1541;-85
2021/01/17 18:57:38;;;;;;;;;;;0.10;99.90;;;-1.33;91.20;96045.00;10347880;28;1368;-81
2021/01/17 19:02:39;;;;;;;;;;;1.30;99.90;;;-1.38;90.72;96058.75;10353364;28;1890;-83
2021/01/17 19:07:43;;;;;;;;;;;-0.40;99.90;;;-1.38;90.88;96060.56;10346455;28;1600;-83
2021/01/17 19:12:56;;;;;;;;;;;1.10;99.90;;;-1.29;91.41;96071.78;10339537;28;1329;-82
2021/01/17 19:18:03;;;;;;;;;;;-0.30;99.90;;;-1.33;91.21;96070.56;10359395;28;1644;-84
2021/01/17 19:23:05;;;;;;;;;;;1.10;99.90;;;-1.26;91.75;96074.06;10366011;28;1960;-82
2021/01/17 19:28:08;;;;;;;;;;;0.20;99.90;;;-1.23;91.24;96077.09;10341369;28;1893;-83
2021/01/17 19:33:10;;;;;;;;;;;-0.20;99.90;;;-1.23;91.13;96076.28;10351290;28;2457;-82
2021/01/17 19:38:19;;;;;;;;;;;-0.20;99.90;;;-1.28;91.26;96083.94;10356166;28;2673;-84
2021/01/17 19:43:21;;;;;;;;;;;-0.30;99.90;;;-1.27;91.61;96091.69;10356977;28;1964;-82
2021/01/17 19:48:24;;;;;;;;;;;-0.20;99.90;;;-1.22;91.35;96089.28;10357746;28;2528;-83
2021/01/17 19:53:28;;;;;;;;;;;1.70;99.90;;;-1.24;90.80;96090.50;10363853;28;1783;-84
2021/01/17 19:58:30;;;;;;;;;;;-0.20;99.90;;;-1.18;91.23;96095.00;10362971;28;2588;-82
2021/01/17 20:03:32;;;;;;;;;;;1.10;99.90;;;-1.18;90.87;96098.44;10367985;28;2322;-82
2021/01/17 20:08:34;;;;;;;;;;;1.20;99.90;;;-1.26;91.14;96095.16;10366278;28;2572;-81
2021/01/17 20:13:36;;;;;;;;;;;-0.10;99.90;;;-1.24;91.58;96096.56;10375933;28;2398;-82
2021/01/17 20:18:42;;;;;;;;;;;-0.20;99.90;;;-1.20;91.34;96102.28;10364591;28;2532;-81
2021/01/17 20:23:44;;;;;;;;;;;-0.20;99.90;;;-1.30;91.23;96102.63;10366544;28;1562;-82
2021/01/17 20:28:49;;;;;;;;;;;1.80;99.90;;;-1.30;90.60;96102.63;10368849;28;2548;-81
2021/01/17 20:33:51;;;;;;;;;;;2.10;99.90;;;-1.30;91.15;96107.88;10355950;28;1976;-82
2021/01/17 20:38:52;;;;;;;;;;;0.00;99.90;;;-1.32;90.48;96115.19;10382266;28;2548;-82
2021/01/17 20:43:54;;;;;;;;;;;0.20;99.90;;;-1.37;90.75;96109.66;10381255;28;2401;-82
2021/01/17 20:48:56;;;;;;;;;;;-0.30;99.90;;;-1.28;90.98;96123.50;10369442;28;2426;-81
2021/01/17 20:53:58;;;;;;;;;;;1.50;99.90;;;-1.30;91.30;96115.81;10374234;28;2034;-83
2021/01/17 20:59:00;;;;;;;;;;;-0.20;99.90;;;-1.22;91.75;96128.03;10365664;28;2429;-83
2021/01/17 21:04:04;;;;;;;;;;;1.40;99.90;;;-1.21;91.55;96122.59;10347206;28;2496;-77
2021/01/17 21:09:06;;;;;;;;;;;0.50;99.90;;;-1.20;91.21;96124.22;10346693;28;2449;-80
2021/01/17 21:14:23;;;;;;;;;;;-0.20;99.90;;;-1.11;91.43;96125.69;10347597;28;2444;-79
2021/01/17 21:19:26;;;;;;;;;;;0.70;99.90;;;-1.05;91.44;96115.38;10342665;28;2302;-79
2021/01/17 21:24:27;;;;;;;;;;;1.20;99.90;;;-1.04;91.74;96117.81;10350548;28;2353;-81
2021/01/17 21:29:29;;;;;;;;;;;0.00;99.90;;;-0.99;91.31;96125.16;10329896;28;2791;-79
2021/01/17 21:34:31;;;;;;;;;;;0.00;99.90;;;-1.01;91.88;96127.19;10348611;28;2117;-79
2021/01/17 21:39:34;;;;;;;;;;;0.10;99.90;;;-1.02;91.70;96128.16;10345520;28;2302;-79
2021/01/17 21:44:35;;;;;;;;;;;0.10;99.90;;;-1.05;91.99;96137.31;10341589;28;2418;-82
2021/01/17 21:49:37;;;;;;;;;;;0.00;99.90;;;-1.07;92.15;96133.25;10344297;28;2013;-81
2021/01/17 21:54:39;;;;;;;;;;;0.00;99.90;;;-1.03;91.97;96139.75;10331635;28;1998;-85
2021/01/17 21:59:41;;;;;;;;;;;1.50;99.90;;;-1.06;91.97;96134.88;10352798;28;2247;-82
2021/01/17 22:04:43;;;;;;;;;;;0.00;99.90;;;-1.02;91.77;96136.91;10368573;28;2282;-84
2021/01/17 22:09:44;;;;;;;;;;;0.00;99.90;;;-0.97;92.40;96141.59;10348740;28;2349;-84
2021/01/17 22:14:46;;;;;;;;;;;0.40;99.90;;;-0.96;92.34;96143.25;10353089;28;2388;-83
2021/01/17 22:19:48;;;;;;;;;;;0.30;99.90;;;-0.92;92.71;96145.31;10350404;28;2340;-81
2021/01/17 22:24:50;;;;;;;;;;;0.10;99.90;;;-0.91;93.09;96138.19;10334883;28;2049;-81
2021/01/17 22:29:51;;;;;;;;;;;0.10;99.90;;;-0.90;92.96;96147.75;10355207;28;2015;-81
2021/01/17 22:34:53;;;;;;;;;;;0.60;99.90;;;-0.88;93.51;96145.75;10355485;28;2274;-80
2021/01/17 22:39:55;;;;;;;;;;;0.20;99.90;;;-0.84;93.21;96152.25;10353599;28;1981;-81
2021/01/17 22:44:57;;;;;;;;;;;1.00;99.90;;;-0.84;93.49;96155.72;10349278;28;2276;-82
2021/01/17 22:49:59;;;;;;;;;;;0.60;99.90;;;-0.80;93.41;96150.88;10351654;28;2281;-80
2021/01/17 22:55:03;;;;;;;;;;;0.30;99.90;;;-0.77;93.76;96145.19;10356184;28;2467;-82
2021/01/17 23:00:05;;;;;;;;;;;0.30;99.90;;;-0.72;93.38;96155.19;10368492;28;2258;-81
2021/01/17 23:05:07;;;;;;;;;;;0.40;99.90;;;-0.69;93.23;96157.44;10357089;28;2281;-82
2021/01/17 23:10:09;;;;;;;;;;;1.20;99.90;;;-0.69;93.47;96160.09;10339364;28;2183;-82
2021/01/17 23:15:11;;;;;;;;;;;1.60;99.90;;;-0.67;93.81;96160.69;10342403;28;2415;-80
2021/01/17 23:20:12;;;;;;;;;;;0.30;99.90;;;-0.61;93.45;96152.00;10350122;28;2374;-82
2021/01/17 23:25:14;;;;;;;;;;;0.50;99.90;;;-0.60;93.99;96151.81;10360233;28;2289;-81
2021/01/17 23:30:16;;;;;;;;;;;1.20;99.90;;;-0.60;93.84;96151.81;10351292;28;2234;-80